sensor_id;sensor_type;location;lat;lon;timestamp;P1;durP1;ratioP1;P2;durP2;ratioP2
5341;SDS011;2693;48.822;9.062;2024-02-15T00:00:36;3.67;;;1.60;;
5341;SDS011;2693;48.822;9.062;2024-02-15T00:03:02;1.77;;;1.33;;
5341;SDS011;2693;48.822;9.062;2024-02-15T00:05:28;2.05;;;1.30;;
5341;SDS011;2693;48.822;9.062;2024-02-15T00:07:53;1.65;;;1.30;;
5341;SDS011;2693;48.822;9.062;2024-02-15T00:10:19;2.25;;;1.52;;
5341;SDS011;2693;48.822;9.062;2024-02-15T00:12:48;2.35;;;1.58;;
5341;SDS011;2693;48.822;9.062;2024-02-15T00:15:15;2.53;;;1.58;;
5341;SDS011;2693;48.822;9.062;2024-02-15T00:17:40;2.55;;;1.52;;
5341;SDS011;2693;48.822;9.062;2024-02-15T00:20:06;2.55;;;1.35;;
5341;SDS011;2693;48.822;9.062;2024-02-15T00:22:35;2.40;;;1.30;;
5341;SDS011;2693;48.822;9.062;2024-02-15T00:25:01;1.52;;;1.15;;
5341;SDS011;2693;48.822;9.062;2024-02-15T00:27:27;2.30;;;1.30;;
5341;SDS011;2693;48.822;9.062;2024-02-15T00:29:53;1.67;;;1.33;;
5341;SDS011;2693;48.822;9.062;2024-02-15T00:32:18;1.55;;;1.33;;
5341;SDS011;2693;48.822;9.062;2024-02-15T00:34:44;2.45;;;1.13;;
5341;SDS011;2693;48.822;9.062;2024-02-15T00:37:09;2.25;;;1.00;;
5341;SDS011;2693;48.822;9.062;2024-02-15T00:39:34;1.35;;;1.10;;
5341;SDS011;2693;48.822;9.062;2024-02-15T00:42:00;2.45;;;1.38;;
5341;SDS011;2693;48.822;9.062;2024-02-15T00:44:26;2.72;;;1.33;;
5341;SDS011;2693;48.822;9.062;2024-02-15T00:46:52;1.95;;;1.10;;
5341;SDS011;2693;48.822;9.062;2024-02-15T00:49:17;1.70;;;1.48;;
5341;SDS011;2693;48.822;9.062;2024-02-15T00:51:45;1.23;;;1.08;;
5341;SDS011;2693;48.822;9.062;2024-02-15T00:54:10;2.75;;;1.30;;
5341;SDS011;2693;48.822;9.062;2024-02-15T00:56:36;1.88;;;1.10;;
5341;SDS011;2693;48.822;9.062;2024-02-15T00:59:01;2.75;;;1.00;;
5341;SDS011;2693;48.822;9.062;2024-02-15T01:01:26;2.38;;;1.42;;
5341;SDS011;2693;48.822;9.062;2024-02-15T01:03:52;1.50;;;1.20;;
5341;SDS011;2693;48.822;9.062;2024-02-15T01:06:17;2.30;;;1.30;;
5341;SDS011;2693;48.822;9.062;2024-02-15T01:08:43;2.25;;;1.27;;
5341;SDS011;2693;48.822;9.062;2024-02-15T01:11:08;2.47;;;1.30;;
5341;SDS011;2693;48.822;9.062;2024-02-15T01:13:34;2.88;;;1.30;;
5341;SDS011;2693;48.822;9.062;2024-02-15T01:16:00;5.78;;;1.60;;
5341;SDS011;2693;48.822;9.062;2024-02-15T01:18:28;2.45;;;1.20;;
5341;SDS011;2693;48.822;9.062;2024-02-15T01:20:54;1.48;;;1.15;;
5341;SDS011;2693;48.822;9.062;2024-02-15T01:23:20;1.73;;;1.20;;
5341;SDS011;2693;48.822;9.062;2024-02-15T01:25:47;2.10;;;1.15;;
5341;SDS011;2693;48.822;9.062;2024-02-15T01:28:13;2.25;;;1.40;;
5341;SDS011;2693;48.822;9.062;2024-02-15T01:30:38;2.88;;;2.00;;
5341;SDS011;2693;48.822;9.062;2024-02-15T01:33:03;2.47;;;1.40;;
5341;SDS011;2693;48.822;9.062;2024-02-15T01:35:29;2.42;;;1.60;;
5341;SDS011;2693;48.822;9.062;2024-02-15T01:37:54;2.70;;;1.52;;
5341;SDS011;2693;48.822;9.062;2024-02-15T01:40:20;2.95;;;1.30;;
5341;SDS011;2693;48.822;9.062;2024-02-15T01:42:45;1.73;;;1.30;;
5341;SDS011;2693;48.822;9.062;2024-02-15T01:45:10;1.50;;;1.40;;
5341;SDS011;2693;48.822;9.062;2024-02-15T01:47:37;2.70;;;1.60;;
5341;SDS011;2693;48.822;9.062;2024-02-15T01:50:05;2.78;;;1.77;;
5341;SDS011;2693;48.822;9.062;2024-02-15T01:52:31;5.15;;;1.60;;
5341;SDS011;2693;48.822;9.062;2024-02-15T01:54:56;3.80;;;1.50;;
5341;SDS011;2693;48.822;9.062;2024-02-15T01:57:22;1.85;;;1.45;;
5341;SDS011;2693;48.822;9.062;2024-02-15T01:59:49;2.20;;;1.40;;
5341;SDS011;2693;48.822;9.062;2024-02-15T02:02:16;1.85;;;1.50;;
5341;SDS011;2693;48.822;9.062;2024-02-15T02:04:43;1.60;;;1.50;;
5341;SDS011;2693;48.822;9.062;2024-02-15T02:07:10;2.58;;;1.55;;
5341;SDS011;2693;48.822;9.062;2024-02-15T02:09:35;1.75;;;1.30;;
5341;SDS011;2693;48.822;9.062;2024-02-15T02:12:01;3.60;;;1.60;;
5341;SDS011;2693;48.822;9.062;2024-02-15T02:14:26;3.72;;;1.67;;
5341;SDS011;2693;48.822;9.062;2024-02-15T02:16:52;3.00;;;1.60;;
5341;SDS011;2693;48.822;9.062;2024-02-15T02:19:18;2.13;;;1.50;;
5341;SDS011;2693;48.822;9.062;2024-02-15T02:21:43;2.50;;;1.65;;
5341;SDS011;2693;48.822;9.062;2024-02-15T02:24:12;2.60;;;1.65;;
5341;SDS011;2693;48.822;9.062;2024-02-15T02:26:38;2.58;;;1.40;;
5341;SDS011;2693;48.822;9.062;2024-02-15T02:29:04;2.45;;;1.70;;
5341;SDS011;2693;48.822;9.062;2024-02-15T02:31:33;2.13;;;1.45;;
5341;SDS011;2693;48.822;9.062;2024-02-15T02:33:59;2.40;;;1.63;;
5341;SDS011;2693;48.822;9.062;2024-02-15T02:36:24;3.25;;;1.85;;
5341;SDS011;2693;48.822;9.062;2024-02-15T02:38:51;3.60;;;1.92;;
5341;SDS011;2693;48.822;9.062;2024-02-15T02:41:17;3.05;;;1.70;;
5341;SDS011;2693;48.822;9.062;2024-02-15T02:43:44;2.65;;;1.70;;
5341;SDS011;2693;48.822;9.062;2024-02-15T02:46:10;2.58;;;1.83;;
5341;SDS011;2693;48.822;9.062;2024-02-15T02:48:36;2.65;;;1.70;;
5341;SDS011;2693;48.822;9.062;2024-02-15T02:51:02;2.33;;;1.67;;
5341;SDS011;2693;48.822;9.062;2024-02-15T02:53:27;3.00;;;1.60;;
5341;SDS011;2693;48.822;9.062;2024-02-15T02:55:53;2.35;;;1.50;;
5341;SDS011;2693;48.822;9.062;2024-02-15T02:58:19;5.78;;;1.88;;
5341;SDS011;2693;48.822;9.062;2024-02-15T03:00:44;2.72;;;1.40;;
5341;SDS011;2693;48.822;9.062;2024-02-15T03:03:11;1.85;;;1.63;;
5341;SDS011;2693;48.822;9.062;2024-02-15T03:05:36;2.20;;;1.67;;
5341;SDS011;2693;48.822;9.062;2024-02-15T03:08:02;2.55;;;1.95;;
5341;SDS011;2693;48.822;9.062;2024-02-15T03:10:27;1.92;;;1.52;;
5341;SDS011;2693;48.822;9.062;2024-02-15T03:12:52;3.53;;;1.90;;
5341;SDS011;2693;48.822;9.062;2024-02-15T03:15:18;2.42;;;2.03;;
5341;SDS011;2693;48.822;9.062;2024-02-15T03:17:45;3.53;;;1.55;;
5341;SDS011;2693;48.822;9.062;2024-02-15T03:20:11;2.42;;;1.70;;
5341;SDS011;2693;48.822;9.062;2024-02-15T03:22:50;2.55;;;1.73;;
5341;SDS011;2693;48.822;9.062;2024-02-15T03:25:19;2.13;;;1.83;;
5341;SDS011;2693;48.822;9.062;2024-02-15T03:27:44;4.25;;;1.55;;
5341;SDS011;2693;48.822;9.062;2024-02-15T03:30:10;2.72;;;1.73;;
5341;SDS011;2693;48.822;9.062;2024-02-15T03:32:35;2.45;;;1.60;;
5341;SDS011;2693;48.822;9.062;2024-02-15T03:35:02;1.90;;;1.75;;
5341;SDS011;2693;48.822;9.062;2024-02-15T03:37:27;2.13;;;1.90;;
5341;SDS011;2693;48.822;9.062;2024-02-15T03:39:53;3.47;;;1.85;;
5341;SDS011;2693;48.822;9.062;2024-02-15T03:42:19;3.67;;;2.20;;
5341;SDS011;2693;48.822;9.062;2024-02-15T03:44:46;3.60;;;1.73;;
5341;SDS011;2693;48.822;9.062;2024-02-15T03:47:13;3.35;;;1.83;;
5341;SDS011;2693;48.822;9.062;2024-02-15T03:49:39;3.53;;;2.10;;
5341;SDS011;2693;48.822;9.062;2024-02-15T03:52:07;4.15;;;1.85;;
5341;SDS011;2693;48.822;9.062;2024-02-15T03:54:35;2.90;;;1.90;;
5341;SDS011;2693;48.822;9.062;2024-02-15T03:57:00;4.57;;;1.85;;
5341;SDS011;2693;48.822;9.062;2024-02-15T03:59:26;3.35;;;1.80;;
5341;SDS011;2693;48.822;9.062;2024-02-15T04:01:52;2.28;;;1.67;;
5341;SDS011;2693;48.822;9.062;2024-02-15T04:04:18;4.32;;;1.92;;
5341;SDS011;2693;48.822;9.062;2024-02-15T04:06:46;1.85;;;1.58;;
5341;SDS011;2693;48.822;9.062;2024-02-15T04:09:12;3.10;;;1.80;;
5341;SDS011;2693;48.822;9.062;2024-02-15T04:11:37;2.42;;;1.77;;
5341;SDS011;2693;48.822;9.062;2024-02-15T04:14:03;3.35;;;1.95;;
5341;SDS011;2693;48.822;9.062;2024-02-15T04:16:28;2.28;;;1.40;;
5341;SDS011;2693;48.822;9.062;2024-02-15T04:18:55;2.45;;;1.60;;
5341;SDS011;2693;48.822;9.062;2024-02-15T04:21:22;2.33;;;2.05;;
5341;SDS011;2693;48.822;9.062;2024-02-15T04:23:48;2.38;;;1.50;;
5341;SDS011;2693;48.822;9.062;2024-02-15T04:26:13;2.65;;;1.60;;
5341;SDS011;2693;48.822;9.062;2024-02-15T04:28:42;2.85;;;1.65;;
5341;SDS011;2693;48.822;9.062;2024-02-15T04:31:07;2.95;;;1.60;;
5341;SDS011;2693;48.822;9.062;2024-02-15T04:33:34;2.40;;;1.90;;
5341;SDS011;2693;48.822;9.062;2024-02-15T04:35:59;3.75;;;1.88;;
5341;SDS011;2693;48.822;9.062;2024-02-15T04:38:27;2.88;;;1.80;;
5341;SDS011;2693;48.822;9.062;2024-02-15T04:40:53;1.90;;;1.50;;
5341;SDS011;2693;48.822;9.062;2024-02-15T04:43:19;2.17;;;1.63;;
5341;SDS011;2693;48.822;9.062;2024-02-15T04:45:45;2.53;;;1.63;;
5341;SDS011;2693;48.822;9.062;2024-02-15T04:48:10;2.97;;;2.00;;
5341;SDS011;2693;48.822;9.062;2024-02-15T04:50:38;3.10;;;1.70;;
5341;SDS011;2693;48.822;9.062;2024-02-15T04:53:08;2.42;;;1.60;;
5341;SDS011;2693;48.822;9.062;2024-02-15T04:55:33;2.25;;;1.40;;
5341;SDS011;2693;48.822;9.062;2024-02-15T04:58:00;3.28;;;1.50;;
5341;SDS011;2693;48.822;9.062;2024-02-15T05:00:26;3.60;;;1.60;;
5341;SDS011;2693;48.822;9.062;2024-02-15T05:02:51;2.03;;;1.35;;
5341;SDS011;2693;48.822;9.062;2024-02-15T05:05:17;3.03;;;1.52;;
5341;SDS011;2693;48.822;9.062;2024-02-15T05:07:42;2.40;;;1.35;;
5341;SDS011;2693;48.822;9.062;2024-02-15T05:10:08;1.40;;;1.20;;
5341;SDS011;2693;48.822;9.062;2024-02-15T05:12:34;3.30;;;1.63;;
5341;SDS011;2693;48.822;9.062;2024-02-15T05:15:00;4.05;;;1.70;;
5341;SDS011;2693;48.822;9.062;2024-02-15T05:17:26;3.72;;;1.55;;
5341;SDS011;2693;48.822;9.062;2024-02-15T05:19:54;3.78;;;1.77;;
5341;SDS011;2693;48.822;9.062;2024-02-15T05:22:23;3.53;;;1.80;;
5341;SDS011;2693;48.822;9.062;2024-02-15T05:24:52;2.83;;;1.63;;
5341;SDS011;2693;48.822;9.062;2024-02-15T05:27:17;4.45;;;1.80;;
5341;SDS011;2693;48.822;9.062;2024-02-15T05:29:43;3.60;;;1.65;;
5341;SDS011;2693;48.822;9.062;2024-02-15T05:32:08;2.72;;;1.50;;
5341;SDS011;2693;48.822;9.062;2024-02-15T05:34:34;2.92;;;1.70;;
5341;SDS011;2693;48.822;9.062;2024-02-15T05:37:04;3.42;;;2.00;;
5341;SDS011;2693;48.822;9.062;2024-02-15T05:39:32;2.47;;;1.80;;
5341;SDS011;2693;48.822;9.062;2024-02-15T05:41:57;2.40;;;1.40;;
5341;SDS011;2693;48.822;9.062;2024-02-15T05:44:25;5.90;;;1.98;;
5341;SDS011;2693;48.822;9.062;2024-02-15T05:46:51;2.45;;;1.58;;
5341;SDS011;2693;48.822;9.062;2024-02-15T05:49:16;3.35;;;1.50;;
5341;SDS011;2693;48.822;9.062;2024-02-15T05:51:43;1.77;;;1.52;;
5341;SDS011;2693;48.822;9.062;2024-02-15T05:54:08;3.00;;;1.52;;
5341;SDS011;2693;48.822;9.062;2024-02-15T05:56:34;2.38;;;1.42;;
5341;SDS011;2693;48.822;9.062;2024-02-15T05:58:59;2.45;;;1.40;;
5341;SDS011;2693;48.822;9.062;2024-02-15T06:01:27;1.77;;;1.50;;
5341;SDS011;2693;48.822;9.062;2024-02-15T06:03:54;2.42;;;1.40;;
5341;SDS011;2693;48.822;9.062;2024-02-15T06:06:20;4.10;;;1.70;;
5341;SDS011;2693;48.822;9.062;2024-02-15T06:08:46;3.33;;;1.63;;
5341;SDS011;2693;48.822;9.062;2024-02-15T06:11:12;2.17;;;1.58;;
5341;SDS011;2693;48.822;9.062;2024-02-15T06:13:37;2.15;;;1.45;;
5341;SDS011;2693;48.822;9.062;2024-02-15T06:16:03;2.97;;;1.52;;
5341;SDS011;2693;48.822;9.062;2024-02-15T06:18:34;2.42;;;1.20;;
5341;SDS011;2693;48.822;9.062;2024-02-15T06:20:59;3.25;;;1.50;;
5341;SDS011;2693;48.822;9.062;2024-02-15T06:23:25;1.98;;;1.63;;
5341;SDS011;2693;48.822;9.062;2024-02-15T06:25:55;2.85;;;1.48;;
5341;SDS011;2693;48.822;9.062;2024-02-15T06:28:23;3.67;;;1.83;;
5341;SDS011;2693;48.822;9.062;2024-02-15T06:31:07;1.73;;;1.38;;
5341;SDS011;2693;48.822;9.062;2024-02-15T06:33:51;1.73;;;1.33;;
5341;SDS011;2693;48.822;9.062;2024-02-15T06:36:52;4.95;;;1.65;;
5341;SDS011;2693;48.822;9.062;2024-02-15T06:39:36;2.38;;;1.60;;
5341;SDS011;2693;48.822;9.062;2024-02-15T06:42:12;4.45;;;1.55;;
5341;SDS011;2693;48.822;9.062;2024-02-15T06:44:44;3.33;;;1.45;;
5341;SDS011;2693;48.822;9.062;2024-02-15T06:47:11;2.67;;;1.75;;
5341;SDS011;2693;48.822;9.062;2024-02-15T06:49:39;2.75;;;1.70;;
5341;SDS011;2693;48.822;9.062;2024-02-15T06:52:05;6.40;;;1.70;;
5341;SDS011;2693;48.822;9.062;2024-02-15T06:54:32;6.38;;;2.17;;
5341;SDS011;2693;48.822;9.062;2024-02-15T06:56:58;2.22;;;1.83;;
5341;SDS011;2693;48.822;9.062;2024-02-15T06:59:23;1.40;;;1.30;;
5341;SDS011;2693;48.822;9.062;2024-02-15T07:01:49;3.47;;;1.60;;
5341;SDS011;2693;48.822;9.062;2024-02-15T07:04:17;3.75;;;1.90;;
5341;SDS011;2693;48.822;9.062;2024-02-15T07:06:42;5.13;;;1.83;;
5341;SDS011;2693;48.822;9.062;2024-02-15T07:09:11;2.00;;;1.30;;
5341;SDS011;2693;48.822;9.062;2024-02-15T07:11:36;2.00;;;1.60;;
5341;SDS011;2693;48.822;9.062;2024-02-15T07:14:02;2.17;;;1.30;;
5341;SDS011;2693;48.822;9.062;2024-02-15T07:16:29;2.13;;;1.45;;
5341;SDS011;2693;48.822;9.062;2024-02-15T07:18:55;3.92;;;1.60;;
5341;SDS011;2693;48.822;9.062;2024-02-15T07:21:20;1.52;;;1.30;;
5341;SDS011;2693;48.822;9.062;2024-02-15T07:23:51;1.70;;;1.38;;
5341;SDS011;2693;48.822;9.062;2024-02-15T07:26:16;2.33;;;1.25;;
5341;SDS011;2693;48.822;9.062;2024-02-15T07:28:43;3.30;;;2.10;;
5341;SDS011;2693;48.822;9.062;2024-02-15T07:31:11;3.17;;;1.65;;
5341;SDS011;2693;48.822;9.062;2024-02-15T07:33:36;3.03;;;1.77;;
5341;SDS011;2693;48.822;9.062;2024-02-15T07:36:02;2.95;;;1.60;;
5341;SDS011;2693;48.822;9.062;2024-02-15T07:38:27;5.28;;;1.90;;
5341;SDS011;2693;48.822;9.062;2024-02-15T07:40:54;2.45;;;1.45;;
5341;SDS011;2693;48.822;9.062;2024-02-15T07:43:20;2.35;;;1.35;;
5341;SDS011;2693;48.822;9.062;2024-02-15T07:45:45;4.38;;;1.80;;
5341;SDS011;2693;48.822;9.062;2024-02-15T07:48:12;2.22;;;1.23;;
5341;SDS011;2693;48.822;9.062;2024-02-15T07:50:38;4.00;;;1.45;;
5341;SDS011;2693;48.822;9.062;2024-02-15T07:53:05;1.60;;;1.50;;
5341;SDS011;2693;48.822;9.062;2024-02-15T07:55:35;2.28;;;1.60;;
5341;SDS011;2693;48.822;9.062;2024-02-15T07:58:00;4.28;;;1.65;;
5341;SDS011;2693;48.822;9.062;2024-02-15T08:00:26;2.13;;;1.50;;
5341;SDS011;2693;48.822;9.062;2024-02-15T08:02:53;2.08;;;1.15;;
5341;SDS011;2693;48.822;9.062;2024-02-15T08:05:18;4.05;;;1.40;;
5341;SDS011;2693;48.822;9.062;2024-02-15T08:07:44;2.30;;;1.30;;
5341;SDS011;2693;48.822;9.062;2024-02-15T08:10:10;2.97;;;1.50;;
5341;SDS011;2693;48.822;9.062;2024-02-15T08:12:40;2.95;;;1.45;;
5341;SDS011;2693;48.822;9.062;2024-02-15T08:15:06;3.72;;;1.35;;
5341;SDS011;2693;48.822;9.062;2024-02-15T08:17:36;2.75;;;1.40;;
5341;SDS011;2693;48.822;9.062;2024-02-15T08:20:05;3.03;;;1.38;;
5341;SDS011;2693;48.822;9.062;2024-02-15T08:22:33;2.50;;;1.40;;
5341;SDS011;2693;48.822;9.062;2024-02-15T08:24:59;3.28;;;1.30;;
5341;SDS011;2693;48.822;9.062;2024-02-15T08:27:25;1.35;;;0.95;;
5341;SDS011;2693;48.822;9.062;2024-02-15T08:29:50;2.25;;;1.25;;
5341;SDS011;2693;48.822;9.062;2024-02-15T08:32:16;2.25;;;1.25;;
5341;SDS011;2693;48.822;9.062;2024-02-15T08:34:41;1.13;;;1.00;;
5341;SDS011;2693;48.822;9.062;2024-02-15T08:37:07;2.60;;;1.20;;
5341;SDS011;2693;48.822;9.062;2024-02-15T08:39:32;2.35;;;1.02;;
5341;SDS011;2693;48.822;9.062;2024-02-15T08:41:57;1.52;;;1.00;;
5341;SDS011;2693;48.822;9.062;2024-02-15T08:44:23;3.45;;;1.20;;
5341;SDS011;2693;48.822;9.062;2024-02-15T08:46:49;1.58;;;0.93;;
5341;SDS011;2693;48.822;9.062;2024-02-15T08:49:15;3.05;;;0.90;;
5341;SDS011;2693;48.822;9.062;2024-02-15T08:51:40;3.13;;;0.93;;
5341;SDS011;2693;48.822;9.062;2024-02-15T08:54:06;4.75;;;1.13;;
5341;SDS011;2693;48.822;9.062;2024-02-15T08:56:31;1.98;;;0.95;;
5341;SDS011;2693;48.822;9.062;2024-02-15T08:58:58;1.67;;;1.00;;
5341;SDS011;2693;48.822;9.062;2024-02-15T09:01:24;1.92;;;0.90;;
5341;SDS011;2693;48.822;9.062;2024-02-15T09:03:50;1.25;;;0.88;;
5341;SDS011;2693;48.822;9.062;2024-02-15T09:06:15;1.35;;;0.93;;
5341;SDS011;2693;48.822;9.062;2024-02-15T09:08:40;2.72;;;0.70;;
5341;SDS011;2693;48.822;9.062;2024-02-15T09:11:06;1.55;;;0.82;;
5341;SDS011;2693;48.822;9.062;2024-02-15T09:13:31;2.42;;;0.80;;
5341;SDS011;2693;48.822;9.062;2024-02-15T09:15:58;2.22;;;0.88;;
5341;SDS011;2693;48.822;9.062;2024-02-15T09:18:24;2.70;;;0.82;;
5341;SDS011;2693;48.822;9.062;2024-02-15T09:20:49;1.98;;;0.85;;
5341;SDS011;2693;48.822;9.062;2024-02-15T09:23:20;2.15;;;1.10;;
5341;SDS011;2693;48.822;9.062;2024-02-15T09:25:46;1.45;;;0.77;;
5341;SDS011;2693;48.822;9.062;2024-02-15T09:28:14;1.33;;;0.80;;
5341;SDS011;2693;48.822;9.062;2024-02-15T09:30:40;2.58;;;0.80;;
5341;SDS011;2693;48.822;9.062;2024-02-15T09:33:05;2.08;;;0.80;;
5341;SDS011;2693;48.822;9.062;2024-02-15T09:35:31;2.33;;;0.90;;
5341;SDS011;2693;48.822;9.062;2024-02-15T09:37:56;2.25;;;0.70;;
5341;SDS011;2693;48.822;9.062;2024-02-15T09:40:22;3.00;;;0.80;;
5341;SDS011;2693;48.822;9.062;2024-02-15T09:42:51;1.23;;;0.60;;
5341;SDS011;2693;48.822;9.062;2024-02-15T09:45:17;1.23;;;0.90;;
5341;SDS011;2693;48.822;9.062;2024-02-15T09:47:45;2.03;;;0.90;;
5341;SDS011;2693;48.822;9.062;2024-02-15T09:50:11;2.88;;;0.82;;
5341;SDS011;2693;48.822;9.062;2024-02-15T09:52:43;2.47;;;0.95;;
5341;SDS011;2693;48.822;9.062;2024-02-15T09:55:15;1.17;;;0.80;;
5341;SDS011;2693;48.822;9.062;2024-02-15T09:57:41;2.08;;;0.93;;
5341;SDS011;2693;48.822;9.062;2024-02-15T10:00:08;1.38;;;0.98;;
5341;SDS011;2693;48.822;9.062;2024-02-15T10:02:38;2.45;;;0.95;;
5341;SDS011;2693;48.822;9.062;2024-02-15T10:05:05;1.08;;;0.90;;
5341;SDS011;2693;48.822;9.062;2024-02-15T10:07:31;4.20;;;1.23;;
5341;SDS011;2693;48.822;9.062;2024-02-15T10:09:56;1.83;;;0.98;;
5341;SDS011;2693;48.822;9.062;2024-02-15T10:12:21;1.52;;;0.85;;
5341;SDS011;2693;48.822;9.062;2024-02-15T10:14:48;1.35;;;0.70;;
5341;SDS011;2693;48.822;9.062;2024-02-15T10:17:19;1.42;;;0.73;;
5341;SDS011;2693;48.822;9.062;2024-02-15T10:19:44;1.13;;;0.65;;
5341;SDS011;2693;48.822;9.062;2024-02-15T10:22:12;3.45;;;0.80;;
5341;SDS011;2693;48.822;9.062;2024-02-15T10:24:39;2.55;;;0.70;;
5341;SDS011;2693;48.822;9.062;2024-02-15T10:27:05;0.95;;;0.70;;
5341;SDS011;2693;48.822;9.062;2024-02-15T10:29:35;1.30;;;0.60;;
5341;SDS011;2693;48.822;9.062;2024-02-15T10:32:02;2.17;;;0.90;;
5341;SDS011;2693;48.822;9.062;2024-02-15T10:34:28;2.15;;;0.70;;
5341;SDS011;2693;48.822;9.062;2024-02-15T10:36:55;3.15;;;0.80;;
5341;SDS011;2693;48.822;9.062;2024-02-15T10:39:43;1.77;;;0.73;;
5341;SDS011;2693;48.822;9.062;2024-02-15T10:42:09;2.13;;;0.80;;
5341;SDS011;2693;48.822;9.062;2024-02-15T10:44:37;2.60;;;0.85;;
5341;SDS011;2693;48.822;9.062;2024-02-15T10:47:05;3.00;;;0.80;;
5341;SDS011;2693;48.822;9.062;2024-02-15T10:49:32;1.73;;;0.75;;
5341;SDS011;2693;48.822;9.062;2024-02-15T10:51:59;1.30;;;0.70;;
5341;SDS011;2693;48.822;9.062;2024-02-15T10:57:09;1.98;;;0.60;;
5341;SDS011;2693;48.822;9.062;2024-02-15T10:59:37;2.33;;;0.90;;
5341;SDS011;2693;48.822;9.062;2024-02-15T11:02:12;2.08;;;0.80;;
5341;SDS011;2693;48.822;9.062;2024-02-15T11:04:40;1.33;;;0.70;;
5341;SDS011;2693;48.822;9.062;2024-02-15T11:07:08;3.60;;;0.70;;
5341;SDS011;2693;48.822;9.062;2024-02-15T11:09:36;1.83;;;0.80;;
5341;SDS011;2693;48.822;9.062;2024-02-15T11:12:02;1.60;;;0.85;;
5341;SDS011;2693;48.822;9.062;2024-02-15T11:14:30;2.28;;;0.80;;
5341;SDS011;2693;48.822;9.062;2024-02-15T11:17:00;2.22;;;0.98;;
5341;SDS011;2693;48.822;9.062;2024-02-15T11:20:00;2.22;;;1.00;;
5341;SDS011;2693;48.822;9.062;2024-02-15T11:22:19;1.75;;;0.77;;
5341;SDS011;2693;48.822;9.062;2024-02-15T11:24:51;1.65;;;1.00;;
5341;SDS011;2693;48.822;9.062;2024-02-15T11:27:24;2.55;;;0.85;;
5341;SDS011;2693;48.822;9.062;2024-02-15T11:35:21;2.58;;;0.82;;
5341;SDS011;2693;48.822;9.062;2024-02-15T11:40:17;2.90;;;0.70;;
5341;SDS011;2693;48.822;9.062;2024-02-15T11:42:45;1.90;;;0.85;;
5341;SDS011;2693;48.822;9.062;2024-02-15T11:45:12;2.45;;;0.95;;
5341;SDS011;2693;48.822;9.062;2024-02-15T11:47:38;1.05;;;0.70;;
5341;SDS011;2693;48.822;9.062;2024-02-15T11:50:07;1.67;;;0.80;;
5341;SDS011;2693;48.822;9.062;2024-02-15T11:52:37;3.03;;;0.80;;
5341;SDS011;2693;48.822;9.062;2024-02-15T11:55:04;1.77;;;0.80;;
5341;SDS011;2693;48.822;9.062;2024-02-15T11:57:35;1.92;;;0.70;;
5341;SDS011;2693;48.822;9.062;2024-02-15T12:00:18;0.85;;;0.82;;
5341;SDS011;2693;48.822;9.062;2024-02-15T12:03:08;1.40;;;0.93;;
5341;SDS011;2693;48.822;9.062;2024-02-15T12:05:53;3.13;;;1.05;;
5341;SDS011;2693;48.822;9.062;2024-02-15T12:08:37;1.58;;;0.75;;
5341;SDS011;2693;48.822;9.062;2024-02-15T12:11:21;2.38;;;0.77;;
5341;SDS011;2693;48.822;9.062;2024-02-15T12:14:05;1.30;;;0.70;;
5341;SDS011;2693;48.822;9.062;2024-02-15T12:17:00;2.13;;;0.98;;
5341;SDS011;2693;48.822;9.062;2024-02-15T12:19:47;1.50;;;0.50;;
5341;SDS011;2693;48.822;9.062;2024-02-15T12:22:14;1.60;;;0.70;;
5341;SDS011;2693;48.822;9.062;2024-02-15T12:24:40;2.30;;;0.60;;
5341;SDS011;2693;48.822;9.062;2024-02-15T12:27:05;2.60;;;1.02;;
5341;SDS011;2693;48.822;9.062;2024-02-15T12:29:31;2.10;;;0.60;;
5341;SDS011;2693;48.822;9.062;2024-02-15T12:31:58;1.23;;;0.57;;
5341;SDS011;2693;48.822;9.062;2024-02-15T12:34:24;1.20;;;0.60;;
5341;SDS011;2693;48.822;9.062;2024-02-15T12:36:49;1.15;;;0.80;;
5341;SDS011;2693;48.822;9.062;2024-02-15T12:39:15;1.15;;;0.57;;
5341;SDS011;2693;48.822;9.062;2024-02-15T12:41:49;1.05;;;0.63;;
5341;SDS011;2693;48.822;9.062;2024-02-15T12:44:16;1.90;;;0.70;;
5341;SDS011;2693;48.822;9.062;2024-02-15T12:46:41;1.60;;;0.70;;
5341;SDS011;2693;48.822;9.062;2024-02-15T12:49:10;0.60;;;0.45;;
5341;SDS011;2693;48.822;9.062;2024-02-15T12:51:49;0.73;;;0.50;;
5341;SDS011;2693;48.822;9.062;2024-02-15T12:54:19;1.30;;;0.75;;
5341;SDS011;2693;48.822;9.062;2024-02-15T12:56:46;1.33;;;0.60;;
5341;SDS011;2693;48.822;9.062;2024-02-15T12:59:13;1.65;;;0.70;;
5341;SDS011;2693;48.822;9.062;2024-02-15T13:01:39;1.48;;;0.50;;
5341;SDS011;2693;48.822;9.062;2024-02-15T13:04:04;1.52;;;0.60;;
5341;SDS011;2693;48.822;9.062;2024-02-15T13:06:31;2.38;;;0.73;;
5341;SDS011;2693;48.822;9.062;2024-02-15T13:08:59;1.52;;;0.70;;
5341;SDS011;2693;48.822;9.062;2024-02-15T13:11:25;1.48;;;0.90;;
5341;SDS011;2693;48.822;9.062;2024-02-15T13:13:51;1.15;;;0.60;;
5341;SDS011;2693;48.822;9.062;2024-02-15T13:16:16;2.72;;;0.60;;
5341;SDS011;2693;48.822;9.062;2024-02-15T13:18:43;1.75;;;0.88;;
5341;SDS011;2693;48.822;9.062;2024-02-15T13:21:12;1.75;;;0.63;;
5341;SDS011;2693;48.822;9.062;2024-02-15T13:23:37;1.67;;;0.65;;
5341;SDS011;2693;48.822;9.062;2024-02-15T13:26:02;1.00;;;0.50;;
5341;SDS011;2693;48.822;9.062;2024-02-15T13:28:29;2.42;;;0.73;;
5341;SDS011;2693;48.822;9.062;2024-02-15T13:30:55;2.30;;;0.90;;
5341;SDS011;2693;48.822;9.062;2024-02-15T13:33:21;2.05;;;0.60;;
5341;SDS011;2693;48.822;9.062;2024-02-15T13:35:46;1.13;;;0.70;;
5341;SDS011;2693;48.822;9.062;2024-02-15T13:38:14;2.20;;;0.65;;
5341;SDS011;2693;48.822;9.062;2024-02-15T13:43:14;1.33;;;0.50;;
5341;SDS011;2693;48.822;9.062;2024-02-15T13:45:41;1.55;;;0.63;;
5341;SDS011;2693;48.822;9.062;2024-02-15T13:48:09;2.03;;;0.70;;
5341;SDS011;2693;48.822;9.062;2024-02-15T13:50:35;1.90;;;0.90;;
5341;SDS011;2693;48.822;9.062;2024-02-15T13:53:01;2.67;;;0.80;;
5341;SDS011;2693;48.822;9.062;2024-02-15T13:55:28;1.75;;;0.80;;
5341;SDS011;2693;48.822;9.062;2024-02-15T13:57:54;0.77;;;0.55;;
5341;SDS011;2693;48.822;9.062;2024-02-15T14:00:23;2.35;;;0.70;;
5341;SDS011;2693;48.822;9.062;2024-02-15T14:02:57;1.13;;;0.60;;
5341;SDS011;2693;48.822;9.062;2024-02-15T14:05:24;3.53;;;0.90;;
5341;SDS011;2693;48.822;9.062;2024-02-15T14:07:59;3.47;;;0.90;;
5341;SDS011;2693;48.822;9.062;2024-02-15T14:10:25;1.27;;;0.57;;
5341;SDS011;2693;48.822;9.062;2024-02-15T14:12:52;3.25;;;1.00;;
5341;SDS011;2693;48.822;9.062;2024-02-15T14:15:20;1.65;;;0.70;;
5341;SDS011;2693;48.822;9.062;2024-02-15T14:17:46;2.17;;;0.60;;
5341;SDS011;2693;48.822;9.062;2024-02-15T14:20:12;2.42;;;0.80;;
5341;SDS011;2693;48.822;9.062;2024-02-15T14:22:41;0.80;;;0.60;;
5341;SDS011;2693;48.822;9.062;2024-02-15T14:25:09;1.50;;;0.85;;
5341;SDS011;2693;48.822;9.062;2024-02-15T14:27:36;1.48;;;0.80;;
5341;SDS011;2693;48.822;9.062;2024-02-15T14:30:03;2.10;;;0.80;;
5341;SDS011;2693;48.822;9.062;2024-02-15T14:32:47;3.10;;;1.02;;
5341;SDS011;2693;48.822;9.062;2024-02-15T14:35:25;2.67;;;1.13;;
5341;SDS011;2693;48.822;9.062;2024-02-15T14:37:56;2.17;;;0.95;;
5341;SDS011;2693;48.822;9.062;2024-02-15T14:40:23;2.72;;;0.88;;
5341;SDS011;2693;48.822;9.062;2024-02-15T14:42:48;1.85;;;1.00;;
5341;SDS011;2693;48.822;9.062;2024-02-15T14:45:13;5.05;;;1.15;;
5341;SDS011;2693;48.822;9.062;2024-02-15T14:47:39;1.70;;;0.90;;
5341;SDS011;2693;48.822;9.062;2024-02-15T14:50:04;4.95;;;1.30;;
5341;SDS011;2693;48.822;9.062;2024-02-15T14:52:33;2.08;;;0.90;;
5341;SDS011;2693;48.822;9.062;2024-02-15T14:55:00;2.75;;;1.00;;
5341;SDS011;2693;48.822;9.062;2024-02-15T14:57:25;1.60;;;1.23;;
5341;SDS011;2693;48.822;9.062;2024-02-15T14:59:50;2.78;;;1.10;;
5341;SDS011;2693;48.822;9.062;2024-02-15T15:02:15;1.83;;;0.80;;
5341;SDS011;2693;48.822;9.062;2024-02-15T15:04:41;1.63;;;1.00;;
5341;SDS011;2693;48.822;9.062;2024-02-15T15:07:22;4.10;;;1.00;;
5341;SDS011;2693;48.822;9.062;2024-02-15T15:10:07;1.20;;;0.80;;
5341;SDS011;2693;48.822;9.062;2024-02-15T15:12:51;2.30;;;0.90;;
5341;SDS011;2693;48.822;9.062;2024-02-15T15:15:17;1.92;;;0.90;;
5341;SDS011;2693;48.822;9.062;2024-02-15T15:17:43;2.03;;;1.00;;
5341;SDS011;2693;48.822;9.062;2024-02-15T15:20:11;2.10;;;1.00;;
5341;SDS011;2693;48.822;9.062;2024-02-15T15:22:36;1.73;;;0.95;;
5341;SDS011;2693;48.822;9.062;2024-02-15T15:25:02;0.98;;;0.80;;
5341;SDS011;2693;48.822;9.062;2024-02-15T15:27:29;1.77;;;1.00;;
5341;SDS011;2693;48.822;9.062;2024-02-15T15:29:54;3.20;;;0.77;;